Météo Nord-Pas-de-Calais   La météo au plus près de chez vous

Station météorologique

Observations météo à La Couronne (16113)

16113001 58 m Dernier relevé à 04:00
12.4°C
Humidité 97 % Vent 1.8 km/h

Journée consultée

Mardi 1 Septembre 2026

Synthèse de la journée

Périodes de référence en UTC

Température maximale

25.7°C

à 18:00

06h 06h

Température minimale

12.4°C

à 03:54

18h 18h

Rafale maximale

4 km/h

à 03:48

00h 00h

Précipitations

0 mm

Cumul quotidien

06h 06h

Graphiques de la journée

Heure locale Réduire

Données détaillées

Relevés météo

Pas de 6 minutes Afficher les relevés infra-horaires
Relevés météo détaillés à La Couronne pour le Mardi 1 Septembre 2026
Heure Température °C Point de rosée °C Humidité % Vent moyen (raf.), km/h Précipitations mm
04:00 12.4 °C 11.9 °C 97 % 2 km/h (4 km/h) 0 mm0 mm
03:54 12.4 °C 11.9 °C 97 % 2 km/h (4 km/h) 0 mm0 mm
03:48 12.5 °C 12 °C 97 % 3 km/h (4 km/h) 0 mm0 mm
03:42 12.6 °C 12.1 °C 97 % 2 km/h (4 km/h) 0 mm0 mm
03:36 12.6 °C 12.1 °C 97 % 0 km/h (3 km/h) 0 mm0 mm
03:30 12.7 °C 12.2 °C 97 % 0 km/h (3 km/h) 0 mm0 mm
03:24 12.8 °C 12.3 °C 97 % 0 km/h (3 km/h) 0 mm0 mm
03:18 12.9 °C 12.4 °C 97 % 0 km/h (0 km/h) 0 mm0 mm
03:12 13 °C 12.5 °C 97 % 0 km/h (0 km/h) 0 mm0 mm
03:06 13 °C 12.5 °C 97 % 0 km/h (2 km/h) 0 mm0 mm
03:00 13 °C 12.5 °C 97 % 2 km/h (4 km/h) 0 mm0 mm
02:54 13.1 °C 12.5 °C 96 % 3 km/h (4 km/h) 0 mm0 mm
02:48 13.2 °C 12.7 °C 97 % 2 km/h (3 km/h) 0 mm0 mm
02:42 13.2 °C 12.6 °C 96 % 0 km/h (3 km/h) 0 mm0 mm
02:36 13.4 °C 12.8 °C 96 % 0 km/h (0 km/h) 0 mm0 mm
02:30 13.4 °C 12.8 °C 96 % 0 km/h (0 km/h) 0 mm0 mm
02:24 13.5 °C 12.9 °C 96 % 0 km/h (2 km/h) 0 mm0 mm
02:18 13.5 °C 12.9 °C 96 % 0 km/h (3 km/h) 0 mm0 mm
02:12 13.5 °C 12.9 °C 96 % 0 km/h (3 km/h) 0 mm0 mm
02:06 13.7 °C 13.1 °C 96 % 0 km/h (3 km/h) 0 mm0 mm
02:00 13.8 °C 13.2 °C 96 % 0 km/h (3 km/h) 0 mm0 mm
01:54 13.9 °C 13.3 °C 96 % 2 km/h (3 km/h) 0 mm0 mm
01:48 13.8 °C 13.2 °C 96 % 3 km/h (4 km/h) 0 mm0 mm
01:42 13.9 °C 13.3 °C 96 % 4 km/h (5 km/h) 0 mm0 mm
01:36 14.1 °C 13.5 °C 96 % 3 km/h (5 km/h) 0 mm0 mm
01:30 14.2 °C 13.6 °C 96 % 0 km/h (4 km/h) 0 mm0 mm
01:24 14.3 °C 13.7 °C 96 % 0 km/h (3 km/h) 0 mm0 mm
01:18 14.4 °C 13.8 °C 96 % 0 km/h (0 km/h) 0 mm0 mm
01:12 14.5 °C 13.9 °C 96 % 0 km/h (0 km/h) 0 mm0 mm
01:06 14.5 °C 13.9 °C 96 % 0 km/h (2 km/h) 0 mm0 mm
01:00 14.6 °C 14 °C 96 % 0 km/h (3 km/h) 0 mm0 mm
00:54 14.6 °C 13.8 °C 95 % 2 km/h (3 km/h) 0 mm0 mm
00:48 14.7 °C 13.9 °C 95 % 2 km/h (4 km/h) 0 mm0 mm
00:42 14.8 °C 14 °C 95 % 0 km/h (4 km/h) 0 mm0 mm
00:36 15 °C 14.2 °C 95 % 0 km/h (2 km/h) 0 mm0 mm
00:30 15 °C 14.2 °C 95 % 0 km/h (2 km/h) 0 mm0 mm
00:24 15 °C 14.2 °C 95 % 2 km/h (4 km/h) 0 mm0 mm
00:18 15.1 °C 14.3 °C 95 % 4 km/h (5 km/h) 0 mm0 mm
00:12 15.3 °C 14.5 °C 95 % 3 km/h (5 km/h) 0 mm0 mm
00:06 15.3 °C 14.3 °C 94 % 0 km/h (3 km/h) 0 mm0 mm
00:00 15.3 °C 14.3 °C 94 % 0 km/h (3 km/h) 0 mm0 mm

Données via Météo-France

Relevés météo à La Couronne

Cette page rassemble les observations de la station de La Couronne : température, humidité, vent, précipitations et pression atmosphérique. Les graphiques facilitent le suivi de la journée, tandis que le tableau donne accès aux mesures horaires et infra-horaires disponibles.

Pour replacer ces mesures dans leur contexte, consultez la climatologie de La Couronne ainsi que ses normales et records. Retrouvez aussi la carte des observations météo en temps réel.